Time;durP1;ratioP1;P1;durP2;ratioP2;P2;SDS_P1;SDS_P2;PMS_P1;PMS_P2;Temp;Humidity;BMP_temperature;BMP_pressure;BME280_temperature;BME280_humidity;BME280_pressure;Samples;Min_cycle;Max_cycle;Signal;HPM_P1;HPM_P2
2024/03/20 00:01:26;;;;;;;12.52;9.40;;;;;;;7.61;100.00;102212.31;5047899;28;20040;-72
2024/03/20 00:03:52;;;;;;;12.13;9.27;;;;;;;7.41;100.00;102077.78;5047433;28;20420;-73
2024/03/20 00:06:18;;;;;;;12.98;8.90;;;;;;;7.28;100.00;101963.69;5047938;28;20025;-72
2024/03/20 00:08:43;;;;;;;10.23;8.68;;;;;;;7.55;100.00;101880.63;5047555;28;20025;-72
2024/03/20 00:11:09;;;;;;;11.40;8.60;;;;;;;8.17;100.00;101929.63;5047715;28;20032;-72
2024/03/20 00:13:34;;;;;;;10.05;7.80;;;;;;;8.12;100.00;101840.09;5047378;28;20033;-72
2024/03/20 00:15:59;;;;;;;10.45;7.63;;;;;;;8.02;100.00;101770.75;5047628;28;20041;-72
2024/03/20 00:18:26;;;;;;;11.93;7.97;;;;;;;8.10;100.00;101669.50;5047175;28;20482;-73
2024/03/20 00:20:51;;;;;;;10.13;7.20;;;;;;;7.30;100.00;101476.38;5063194;28;20037;-72
2024/03/20 00:23:16;;;;;;;10.13;7.78;;;;;;;7.67;100.00;101435.34;5047554;28;20032;-72
2024/03/20 00:25:42;;;;;;;9.73;7.55;;;;;;;8.25;100.00;101493.19;5046941;28;20117;-72
2024/03/20 00:28:07;;;;;;;11.15;7.45;;;;;;;8.16;100.00;101419.63;5063000;28;20033;-72
2024/03/20 00:30:33;;;;;;;10.70;7.78;;;;;;;7.78;100.00;101342.63;5047375;28;20590;-72
2024/03/20 00:32:58;;;;;;;11.18;8.15;;;;;;;8.07;100.00;101352.88;5048303;28;20029;-73
2024/03/20 00:35:23;;;;;;;11.65;8.68;;;;;;;8.18;100.00;101300.59;5051668;28;20031;-73
2024/03/20 00:37:49;;;;;;;12.65;9.38;;;;;;;8.06;100.00;101268.47;5051355;28;20415;-74
2024/03/20 00:40:15;;;;;;;12.05;9.23;;;;;;;7.84;100.00;101181.47;5051450;28;20469;-73
2024/03/20 00:42:41;;;;;;;11.48;9.18;;;;;;;8.08;100.00;101236.38;5051068;28;20087;-73
2024/03/20 00:45:06;;;;;;;12.77;8.95;;;;;;;7.39;100.00;101097.03;5050738;28;20029;-72
2024/03/20 00:47:32;;;;;;;12.68;9.55;;;;;;;8.06;100.00;101154.50;5050791;28;20396;-73
2024/03/20 00:49:57;;;;;;;11.48;8.48;;;;;;;8.11;100.00;101206.03;5066276;28;20040;-73
2024/03/20 00:52:23;;;;;;;11.10;8.48;;;;;;;7.84;100.00;101173.06;5051106;28;20156;-73
2024/03/20 00:54:48;;;;;;;11.98;8.60;;;;;;;7.10;100.00;101086.81;5065408;28;20102;-73
2024/03/20 00:57:13;;;;;;;12.75;8.93;;;;;;;7.90;100.00;101239.72;5050713;28;20029;-73
2024/03/20 00:59:39;;;;;;;15.25;10.05;;;;;;;7.33;100.00;101153.47;5050422;28;20127;-74
2024/03/20 01:02:06;;;;;;;12.25;9.30;;;;;;;7.34;100.00;101144.22;5050333;28;20028;-76
2024/03/20 01:04:32;;;;;;;11.43;9.00;;;;;;;7.51;100.00;101285.13;5050748;28;20079;-72
2024/03/20 01:06:58;;;;;;;13.82;9.63;;;;;;;7.74;100.00;101286.06;5050496;28;20407;-73
2024/03/20 01:09:24;;;;;;;17.02;10.05;;;;;;;7.94;100.00;101354.53;5050004;28;20025;-73
2024/03/20 01:11:50;;;;;;;13.43;10.27;;;;;;;7.72;100.00;101299.56;5050980;28;20112;-72
2024/03/20 01:14:15;;;;;;;14.95;10.13;;;;;;;7.35;100.00;101234.44;5050617;28;20074;-72
2024/03/20 01:16:41;;;;;;;13.57;10.82;;;;;;;7.88;100.00;101351.97;5050047;28;20033;-72
2024/03/20 01:19:06;;;;;;;14.07;10.70;;;;;;;7.73;100.00;101360.31;5050083;28;20033;-73
2024/03/20 01:21:32;;;;;;;14.50;10.60;;;;;;;7.12;100.00;101252.00;5048827;28;20036;-73
2024/03/20 01:23:57;;;;;;;16.80;11.35;;;;;;;7.62;100.00;101364.47;5049740;28;20029;-73
2024/03/20 01:26:23;;;;;;;14.63;11.13;;;;;;;6.97;100.00;101270.44;5049843;28;20105;-71
2024/03/20 01:28:49;;;;;;;16.50;12.07;;;;;;;7.44;100.00;101351.72;5050016;28;20040;-71
2024/03/20 01:31:15;;;;;;;14.98;11.88;;;;;;;7.64;100.00;101399.91;5049875;28;20561;-71
2024/03/20 01:33:40;;;;;;;15.55;11.18;;;;;;;7.01;100.00;101344.63;5049928;28;20021;-71
2024/03/20 01:36:06;;;;;;;17.38;11.23;;;;;;;7.27;100.00;101392.88;5049842;28;20079;-71
2024/03/20 01:38:31;;;;;;;12.23;9.30;;;;;;;6.75;100.00;101291.34;5064556;28;20078;-72
2024/03/20 01:40:56;;;;;;;10.23;8.13;;;;;;;6.61;100.00;101227.19;5049952;28;20489;-71
2024/03/20 01:43:22;;;;;;;11.95;8.50;;;;;;;7.13;100.00;101230.09;5049068;28;20033;-71
2024/03/20 01:45:49;;;;;;;9.65;7.38;;;;;;;6.70;100.00;101065.56;5064650;28;20029;-71
2024/03/20 01:48:17;;;;;;;9.85;7.28;;;;;;;6.57;100.00;101013.28;5049790;28;20037;-73
2024/03/20 01:50:44;;;;;;;9.35;6.82;;;;;;;6.07;100.00;100917.09;5064923;28;20514;-71
2024/03/20 01:53:11;;;;;;;10.68;6.90;;;;;;;7.13;100.00;101046.34;5049368;28;20117;-71
2024/03/20 01:55:37;;;;;;;8.93;7.07;;;;;;;6.47;100.00;100897.06;5049345;28;20049;-71
2024/03/20 01:58:03;;;;;;;8.18;6.47;;;;;;;6.24;100.00;100875.94;5064701;28;20718;-72
2024/03/20 02:00:28;;;;;;;8.68;6.60;;;;;;;6.43;100.00;100901.25;5047449;28;20055;-71
2024/03/20 02:02:56;;;;;;;9.82;6.35;;;;;;;6.75;100.00;101037.78;5048911;28;20036;-72
2024/03/20 02:05:22;;;;;;;7.95;6.28;;;;;;;6.78;100.00;100992.31;5048042;28;20037;-71
2024/03/20 02:07:48;;;;;;;9.00;6.53;;;;;;;6.76;100.00;101019.25;5049068;28;20029;-71
2024/03/20 02:10:13;;;;;;;8.85;6.60;;;;;;;6.05;100.00;100880.03;5049232;28;20551;-71
2024/03/20 02:12:39;;;;;;;7.70;6.45;;;;;;;6.31;100.00;100941.59;5064861;28;20040;-72
2024/03/20 02:15:09;;;;;;;9.82;6.78;;;;;;;5.71;100.00;100818.44;5064290;28;20033;-72
2024/03/20 02:17:41;;;;;;;9.23;6.63;;;;;;;6.24;100.00;100912.09;5049062;28;20111;-71
2024/03/20 02:20:08;;;;;;;8.40;6.47;;;;;;;6.64;100.00;101004.03;5048559;28;20025;-75
2024/03/20 02:22:41;;;;;;;7.90;6.45;;;;;;;6.22;100.00;100880.13;5064204;28;20044;-71
2024/03/20 02:25:08;;;;;;;9.27;6.65;;;;;;;6.57;100.00;101012.44;5064455;28;20059;-71
2024/03/20 02:27:34;;;;;;;7.97;6.20;;;;;;;6.72;100.00;101020.06;5063773;28;20123;-71
2024/03/20 02:29:59;;;;;;;9.55;7.10;;;;;;;6.53;100.00;100894.53;5048719;28;20464;-71
2024/03/20 02:32:24;;;;;;;8.88;6.78;;;;;;;6.77;100.00;100955.25;5047549;28;20016;-71
2024/03/20 02:34:51;;;;;;;9.27;6.68;;;;;;;6.65;100.00;100935.84;5048869;28;20408;-71
2024/03/20 02:37:16;;;;;;;10.20;7.07;;;;;;;6.02;100.00;100860.69;5048025;28;20151;-71
2024/03/20 02:39:42;;;;;;;8.15;6.90;;;;;;;6.96;100.00;100992.38;5049150;28;20431;-75
2024/03/20 02:42:07;;;;;;;13.43;7.25;;;;;;;6.45;100.00;100918.94;5046748;28;20040;-72
2024/03/20 02:44:33;;;;;;;9.30;6.47;;;;;;;5.69;100.00;100789.00;5048878;28;20461;-72
2024/03/20 02:47:00;;;;;;;11.48;7.65;;;;;;;6.87;100.00;100937.56;5063714;28;20025;-72
2024/03/20 02:49:25;;;;;;;11.73;8.05;;;;;;;6.89;100.00;100962.88;5063911;28;20084;-72
2024/03/20 02:51:51;;;;;;;11.75;7.75;;;;;;;6.12;100.00;100832.13;5048206;28;20040;-71
2024/03/20 02:54:16;;;;;;;11.32;8.13;;;;;;;5.82;100.00;100775.63;5048485;28;20083;-71
2024/03/20 02:56:41;;;;;;;12.93;8.35;;;;;;;6.65;100.00;100950.16;5047644;28;20575;-72
2024/03/20 02:59:07;;;;;;;12.10;8.38;;;;;;;6.55;100.00;100964.44;5048347;28;20033;-71
2024/03/20 03:01:32;;;;;;;10.48;8.02;;;;;;;6.56;100.00;100952.63;5049082;28;20642;-71
2024/03/20 03:03:57;;;;;;;9.90;7.45;;;;;;;6.03;100.00;100866.56;5047280;28;20459;-71
2024/03/20 03:06:23;;;;;;;11.68;7.95;;;;;;;6.48;100.00;100982.06;5048376;28;20032;-71
2024/03/20 03:08:48;;;;;;;9.77;6.88;;;;;;;6.36;100.00;100961.84;5048397;28;20036;-73
2024/03/20 03:11:15;;;;;;;8.93;7.15;;;;;;;6.53;100.00;100937.47;5048113;28;20033;-73
2024/03/20 03:13:41;;;;;;;9.32;6.47;;;;;;;6.34;100.00;100955.94;5048217;28;20522;-71
2024/03/20 03:16:15;;;;;;;9.02;6.80;;;;;;;6.45;100.00;100952.63;5048021;28;20021;-70
2024/03/20 03:18:41;;;;;;;8.50;6.30;;;;;;;6.60;100.00;100944.22;5045699;28;20033;-71
2024/03/20 03:21:12;;;;;;;9.77;6.53;;;;;;;6.47;100.00;100919.78;5048377;28;20028;-70
2024/03/20 03:23:38;;;;;;;9.93;6.47;;;;;;;6.19;100.00;100845.63;5047683;28;20032;-71
2024/03/20 03:26:04;;;;;;;9.18;6.15;;;;;;;5.91;100.00;100824.47;5046340;28;20102;-70
2024/03/20 03:28:30;;;;;;;7.32;5.53;;;;;;;5.68;100.00;100795.75;5048220;28;20036;-70
2024/03/20 03:30:55;;;;;;;7.82;5.75;;;;;;;6.29;100.00;100910.44;5046278;28;20032;-70
2024/03/20 03:33:21;;;;;;;9.82;6.20;;;;;;;6.11;100.00;100922.97;5047837;28;20036;-71
2024/03/20 03:35:47;;;;;;;10.43;6.03;;;;;;;6.07;100.00;100893.50;5048495;28;20029;-73
2024/03/20 03:38:12;;;;;;;7.80;5.50;;;;;;;5.77;100.00;100860.50;5062946;28;20028;-70
2024/03/20 03:40:38;;;;;;;7.85;5.80;;;;;;;5.99;100.00;100918.72;5048259;28;20405;-70
2024/03/20 03:43:03;;;;;;;7.38;6.10;;;;;;;5.97;100.00;100783.28;5047941;28;20469;-71
2024/03/20 03:45:29;;;;;;;6.57;5.22;;;;;;;6.24;100.00;100902.00;5047385;28;20103;-72
2024/03/20 03:47:54;;;;;;;8.15;5.60;;;;;;;6.33;100.00;100886.06;5044942;28;20451;-71
2024/03/20 03:50:19;;;;;;;10.02;5.65;;;;;;;6.00;100.00;100853.97;5047048;28;20029;-70
2024/03/20 03:52:45;;;;;;;6.70;5.20;;;;;;;5.46;100.00;100738.47;5063423;28;22049;-76
2024/03/20 03:55:10;;;;;;;8.23;5.20;;;;;;;5.36;100.00;100772.03;5046081;28;20419;-71
2024/03/20 03:57:36;;;;;;;7.10;4.60;;;;;;;6.12;100.00;100867.44;5046889;28;20537;-70
2024/03/20 04:00:02;;;;;;;6.00;4.75;;;;;;;5.62;100.00;100788.16;5046901;28;20064;-70
2024/03/20 04:02:28;;;;;;;7.70;5.30;;;;;;;5.84;100.00;100718.47;5046994;28;20079;-69
2024/03/20 04:04:53;;;;;;;6.38;4.72;;;;;;;5.44;100.00;100756.94;5047554;28;20029;-70
2024/03/20 04:07:20;;;;;;;8.05;5.18;;;;;;;5.79;100.00;100771.41;5063499;28;20032;-75
2024/03/20 04:09:46;;;;;;;8.65;6.50;;;;;;;6.31;100.00;100855.75;5049301;28;20067;-73
2024/03/20 04:12:11;;;;;;;12.70;7.60;;;;;;;5.59;100.00;100727.59;5048499;28;20036;-74
2024/03/20 04:14:37;;;;;;;11.00;7.72;;;;;;;5.46;100.00;100756.13;5049966;28;20032;-73
2024/03/20 04:17:02;;;;;;;8.77;5.65;;;;;;;5.70;100.00;100891.59;5049470;28;20052;-72
2024/03/20 04:19:27;;;;;;;10.07;5.88;;;;;;;5.86;100.00;100858.09;5048383;28;20040;-74
2024/03/20 04:21:55;;;;;;;7.68;5.55;;;;;;;5.82;100.00;100884.91;5065955;28;21513;-74
2024/03/20 04:24:21;;;;;;;7.30;4.72;;;;;;;5.04;100.00;100755.84;5048944;28;20036;-71
2024/03/20 04:26:46;;;;;;;6.82;5.10;;;;;;;5.76;100.00;100752.91;5050084;28;20502;-71
2024/03/20 04:29:12;;;;;;;8.20;5.15;;;;;;;5.98;100.00;100827.88;5048760;28;20061;-70
2024/03/20 04:31:38;;;;;;;8.25;5.05;;;;;;;5.60;100.00;100729.28;5066234;28;20159;-70
2024/03/20 04:34:03;;;;;;;6.47;4.72;;;;;;;6.11;100.00;100847.25;5049737;28;20033;-70
2024/03/20 04:36:28;;;;;;;5.93;5.03;;;;;;;5.57;100.00;100799.88;5064821;28;20561;-71
2024/03/20 04:38:54;;;;;;;10.15;5.50;;;;;;;5.42;100.00;100686.34;5048962;28;20068;-70
2024/03/20 04:41:22;;;;;;;8.23;5.13;;;;;;;6.09;100.00;100816.13;5065041;28;20039;-71
2024/03/20 04:43:49;;;;;;;7.30;5.50;;;;;;;6.14;100.00;100829.59;5049747;28;20025;-70
2024/03/20 04:46:15;;;;;;;10.77;7.82;;;;;;;5.53;100.00;100667.06;5048277;28;20037;-70
2024/03/20 04:48:40;;;;;;;14.60;9.95;;;;;;;5.83;100.00;100696.56;5049710;28;20033;-70
2024/03/20 04:51:06;;;;;;;18.00;11.85;;;;;;;5.94;100.00;100779.06;5046427;28;20041;-69
2024/03/20 04:53:31;;;;;;;18.92;12.48;;;;;;;5.57;100.00;100681.34;5046682;28;20061;-69
2024/03/20 04:55:56;;;;;;;23.77;14.70;;;;;;;5.79;100.00;100723.47;5048314;28;20045;-68
2024/03/20 04:58:23;;;;;;;31.05;19.70;;;;;;;6.09;100.00;100816.13;5049607;28;20031;-69
2024/03/20 05:00:49;;;;;;;40.63;23.05;;;;;;;5.79;100.00;100818.47;5049174;28;20124;-69
2024/03/20 05:03:14;;;;;;;28.63;17.80;;;;;;;5.88;100.00;100828.66;5048720;28;20423;-71
2024/03/20 05:05:41;;;;;;;25.25;16.98;;;;;;;6.02;100.00;100804.34;5048486;28;20968;-72
2024/03/20 05:08:06;;;;;;;16.35;10.65;;;;;;;6.13;100.00;100798.47;5048379;28;20037;-73
2024/03/20 05:10:32;;;;;;;12.30;8.55;;;;;;;5.94;100.00;100818.59;5064216;28;20091;-69
2024/03/20 05:12:58;;;;;;;14.57;11.00;;;;;;;5.49;100.00;100693.09;5047785;28;20033;-70
2024/03/20 05:15:23;;;;;;;17.75;11.45;;;;;;;5.57;100.00;100693.13;5048065;28;20043;-71
2024/03/20 05:17:48;;;;;;;14.27;9.40;;;;;;;4.89;100.00;100582.78;5046263;28;20033;-68
2024/03/20 05:20:15;;;;;;;9.65;7.35;;;;;;;4.98;100.00;100579.47;5057931;28;20033;-71
2024/03/20 05:22:41;;;;;;;11.23;6.00;;;;;;;6.30;100.00;100739.63;5047275;28;20025;-70
2024/03/20 05:25:06;;;;;;;10.07;6.40;;;;;;;6.43;100.00;100675.66;5047555;28;20147;-70
2024/03/20 05:27:32;;;;;;;9.10;5.53;;;;;;;6.07;100.00;100562.91;5048842;28;20044;-70
2024/03/20 05:29:57;;;;;;;6.72;5.40;;;;;;;6.10;100.00;100573.03;5048311;28;20040;-72
2024/03/20 05:32:23;;;;;;;10.60;7.05;;;;;;;7.16;100.00;100618.22;5046892;28;20489;-69
2024/03/20 05:34:48;;;;;;;6.60;5.40;;;;;;;7.81;100.00;100518.34;5063981;28;20033;-69
2024/03/20 05:37:14;;;;;;;6.75;5.45;;;;;;;7.08;100.00;100480.91;5047706;28;20479;-69
2024/03/20 05:39:40;;;;;;;8.57;6.10;;;;;;;7.60;100.00;100484.78;5048657;28;20025;-70
2024/03/20 05:42:05;;;;;;;7.57;5.43;;;;;;;8.03;100.00;100539.25;5048121;28;20028;-69
2024/03/20 05:44:31;;;;;;;7.65;5.55;;;;;;;7.55;100.00;100418.19;5048331;28;20499;-69
2024/03/20 05:46:56;;;;;;;8.68;6.47;;;;;;;7.69;100.00;100498.19;5047072;28;20032;-69
2024/03/20 05:49:22;;;;;;;10.10;6.20;;;;;;;8.55;100.00;100342.81;5049637;28;20036;-70
2024/03/20 05:51:48;;;;;;;10.02;6.65;;;;;;;8.78;100.00;100464.16;5048889;28;20059;-70
2024/03/20 05:54:14;;;;;;;7.38;5.57;;;;;;;8.38;100.00;100392.00;5049344;28;20094;-68
2024/03/20 05:56:40;;;;;;;6.53;5.20;;;;;;;8.46;100.00;100315.06;5047479;28;20045;-69
2024/03/20 05:59:06;;;;;;;7.63;5.65;;;;;;;8.30;100.00;100378.63;5049089;28;20393;-68
2024/03/20 06:01:31;;;;;;;7.93;5.50;;;;;;;9.38;100.00;100407.47;5049234;28;20142;-70
2024/03/20 06:03:57;;;;;;;7.22;6.13;;;;;;;9.15;100.00;100390.94;5047909;28;20462;-69
2024/03/20 06:06:22;;;;;;;9.98;6.60;;;;;;;8.34;100.00;100378.56;5049410;28;20541;-70
2024/03/20 06:08:48;;;;;;;8.15;6.43;;;;;;;9.17;100.00;100292.84;5048647;28;20037;-69
2024/03/20 06:11:13;;;;;;;8.95;6.30;;;;;;;9.19;100.00;100392.56;5047054;28;20028;-68
2024/03/20 06:13:39;;;;;;;8.30;6.05;;;;;;;9.41;100.00;100462.38;5048606;28;20074;-68
2024/03/20 06:16:04;;;;;;;7.85;6.10;;;;;;;10.01;100.00;100344.53;5049329;28;20044;-68
2024/03/20 06:18:30;;;;;;;7.38;5.82;;;;;;;9.78;100.00;100328.09;5055435;28;20499;-68
2024/03/20 06:20:56;;;;;;;8.35;7.30;;;;;;;9.77;100.00;100460.97;5052453;28;20025;-71
2024/03/20 06:23:21;;;;;;;9.02;6.30;;;;;;;10.34;100.00;100398.94;5048559;28;20033;-69
2024/03/20 06:25:47;;;;;;;9.25;6.45;;;;;;;10.14;100.00;100434.91;5048316;28;20032;-69
2024/03/20 06:28:12;;;;;;;7.90;6.25;;;;;;;9.66;100.00;100491.63;5063665;28;20551;-71
2024/03/20 06:30:38;;;;;;;7.55;5.75;;;;;;;9.00;100.00;100360.72;5063214;28;20561;-68
2024/03/20 06:33:05;;;;;;;8.13;5.82;;;;;;;10.42;100.00;100430.97;5048469;28;20108;-73
2024/03/20 06:35:31;;;;;;;7.03;6.10;;;;;;;9.96;100.00;100439.47;5046978;28;20114;-70
2024/03/20 06:37:59;;;;;;;8.60;6.88;;;;;;;10.80;100.00;100386.09;5063969;28;20025;-71
2024/03/20 06:40:32;;;;;;;12.70;7.00;;;;;;;11.33;100.00;100263.50;5063524;28;20157;-70
2024/03/20 06:43:01;;;;;;;9.20;6.72;;;;;;;10.21;100.00;100385.66;5047591;28;20502;-73
2024/03/20 06:45:31;;;;;;;9.32;7.07;;;;;;;10.82;100.00;100470.81;5048975;28;20066;-68
2024/03/20 06:47:57;;;;;;;10.65;6.68;;;;;;;10.00;100.00;100441.09;5047988;28;20028;-68
2024/03/20 06:50:27;;;;;;;9.18;6.40;;;;;;;10.26;100.00;100573.63;5048656;28;20025;-68
2024/03/20 06:52:53;;;;;;;8.63;6.85;;;;;;;9.69;100.00;100490.72;5064003;28;20067;-68
2024/03/20 06:55:19;;;;;;;10.00;6.78;;;;;;;10.69;100.00;100550.78;5047318;28;20057;-68
2024/03/20 06:57:44;;;;;;;9.48;6.25;;;;;;;9.61;100.00;100577.13;5047793;28;20041;-68
2024/03/20 07:00:17;;;;;;;9.88;7.20;;;;;;;11.44;100.00;100461.78;5048418;28;20049;-68
2024/03/20 07:02:46;;;;;;;11.60;7.20;;;;;;;10.62;100.00;100613.63;5046932;28;20535;-68
2024/03/20 07:05:15;;;;;;;10.73;6.80;;;;;;;11.44;100.00;100495.72;5048160;28;20048;-68
2024/03/20 07:07:44;;;;;;;9.27;6.72;;;;;;;10.97;100.00;100557.81;5047222;28;20511;-68
2024/03/20 07:10:10;;;;;;;8.63;6.18;;;;;;;11.35;100.00;100465.38;5062621;28;20064;-67
2024/03/20 07:12:36;;;;;;;9.98;6.70;;;;;;;11.30;100.00;100530.84;5046762;28;20471;-68
2024/03/20 07:15:09;;;;;;;10.57;6.72;;;;;;;10.03;100.00;100590.88;5047641;28;20554;-69
2024/03/20 07:17:39;;;;;;;9.35;6.40;;;;;;;10.03;100.00;100710.28;5047460;28;20028;-72
2024/03/20 07:20:07;;;;;;;8.70;6.07;;;;;;;9.91;100.00;100565.69;5047878;28;20033;-69
2024/03/20 07:22:36;;;;;;;8.77;6.10;;;;;;;10.10;100.00;100692.41;5047597;28;20044;-70
2024/03/20 07:25:02;;;;;;;10.25;5.88;;;;;;;11.22;100.00;100584.47;5063093;28;20068;-69
2024/03/20 07:27:28;;;;;;;8.77;6.28;;;;;;;10.89;100.00;100472.38;5048169;28;20064;-70
2024/03/20 07:29:53;;;;;;;7.93;6.20;;;;;;;10.30;100.00;100603.19;5045402;28;20031;-69
2024/03/20 07:32:19;;;;;;;8.25;6.20;;;;;;;11.71;100.00;100594.44;5047767;28;20021;-70
2024/03/20 07:34:44;;;;;;;7.10;5.90;;;;;;;11.15;100.00;100567.63;5047276;28;20466;-70
2024/03/20 07:37:11;;;;;;;7.35;5.97;;;;;;;10.94;100.00;100557.91;5047751;28;20407;-69
2024/03/20 07:39:37;;;;;;;8.15;5.70;;;;;;;12.32;100.00;100580.25;5046461;28;20149;-69
2024/03/20 07:42:04;;;;;;;9.25;5.82;;;;;;;11.62;100.00;100528.41;5049403;28;20043;-71
2024/03/20 07:44:30;;;;;;;8.38;5.50;;;;;;;11.12;100.00;100745.00;5053445;28;20060;-69
2024/03/20 07:47:00;;;;;;;6.75;5.47;;;;;;;10.78;100.00;100769.31;5053104;28;20029;-69
2024/03/20 07:49:25;;;;;;;6.28;4.95;;;;;;;11.30;100.00;100620.78;5052024;28;20032;-70
2024/03/20 07:51:52;;;;;;;7.63;5.72;;;;;;;11.17;100.00;100707.59;5052643;28;20087;-70
2024/03/20 07:54:27;;;;;;;7.25;5.22;;;;;;;11.23;100.00;100710.84;5051923;28;20087;-69
2024/03/20 07:56:56;;;;;;;7.78;5.45;;;;;;;10.74;100.00;100643.06;5051316;28;20045;-69
2024/03/20 07:59:26;;;;;;;8.15;5.80;;;;;;;11.51;100.00;100690.78;5052627;28;20434;-69
2024/03/20 08:01:52;;;;;;;7.03;5.50;;;;;;;11.73;100.00;100827.03;5050188;28;20033;-69
2024/03/20 08:04:17;;;;;;;7.10;5.22;;;;;;;11.96;100.00;100832.53;5051107;28;20083;-70
2024/03/20 08:06:43;;;;;;;7.88;5.97;;;;;;;12.32;100.00;100789.31;5050355;28;20419;-70
2024/03/20 08:09:09;;;;;;;7.28;5.25;;;;;;;12.58;100.00;100764.03;5052412;28;20372;-73
2024/03/20 08:11:35;;;;;;;7.78;5.22;;;;;;;11.40;100.00;100780.97;5051153;28;20029;-70
2024/03/20 08:14:08;;;;;;;6.82;4.97;;;;;;;11.77;100.00;100942.47;5049376;28;20089;-71
2024/03/20 08:16:38;;;;;;;7.05;4.65;;;;;;;11.50;100.00;100785.03;5051595;28;20492;-71
2024/03/20 08:19:07;;;;;;;7.18;5.28;;;;;;;11.99;100.00;100854.56;5049427;28;20044;-71
2024/03/20 08:21:36;;;;;;;6.13;4.68;;;;;;;12.17;100.00;100931.53;5050073;28;20506;-69
2024/03/20 08:24:05;;;;;;;7.85;4.78;;;;;;;13.19;100.00;100840.88;5051116;28;20111;-69
2024/03/20 08:26:31;;;;;;;6.82;4.80;;;;;;;12.53;100.00;100924.84;5050052;28;20037;-69
2024/03/20 08:28:56;;;;;;;7.18;4.65;;;;;;;13.41;100.00;100859.84;5051556;28;20032;-69
2024/03/20 08:31:22;;;;;;;7.82;5.10;;;;;;;12.87;100.00;100642.53;5051106;28;20384;-70
2024/03/20 08:33:48;;;;;;;8.13;4.82;;;;;;;12.74;100.00;100817.22;5050900;28;20057;-70
2024/03/20 08:36:14;;;;;;;7.15;4.93;;;;;;;13.25;100.00;100865.41;5051149;28;20112;-71
2024/03/20 08:38:39;;;;;;;7.38;4.60;;;;;;;12.18;100.00;100922.19;5050440;28;20127;-72
2024/03/20 08:41:05;;;;;;;7.15;4.20;;;;;;;12.86;100.00;100966.66;5051755;28;20032;-69
2024/03/20 08:43:34;;;;;;;8.20;4.70;;;;;;;13.66;100.00;100853.25;5051229;28;20033;-69
2024/03/20 08:46:00;;;;;;;6.45;4.70;;;;;;;13.57;100.00;100913.94;5050775;28;20112;-72
2024/03/20 08:48:27;;;;;;;7.13;4.32;;;;;;;12.68;100.00;100842.88;5050638;28;20033;-70
2024/03/20 08:50:53;;;;;;;5.97;4.25;;;;;;;13.46;100.00;100941.50;5050719;28;20033;-70
2024/03/20 08:53:19;;;;;;;5.55;4.30;;;;;;;13.79;100.00;100736.16;5050131;28;20048;-70
2024/03/20 08:55:45;;;;;;;7.50;4.10;;;;;;;13.39;100.00;100899.09;5064639;28;20079;-69
2024/03/20 08:58:11;;;;;;;4.82;4.00;;;;;;;12.52;100.00;100881.53;5065995;28;20103;-69
2024/03/20 09:00:36;;;;;;;6.22;4.32;;;;;;;13.24;100.00;100960.75;5050122;28;20484;-70
2024/03/20 09:03:02;;;;;;;6.43;4.57;;;;;;;13.67;100.00;100913.69;5065841;28;20490;-69
2024/03/20 09:05:28;;;;;;;5.95;3.92;;;;;;;12.44;100.00;100954.81;5050654;28;20219;-69
2024/03/20 09:07:54;;;;;;;7.72;4.28;;;;;;;13.61;100.00;100956.44;5048830;28;20044;-69
2024/03/20 09:10:19;;;;;;;8.80;4.75;;;;;;;13.80;100.00;100907.41;5050495;28;20032;-69
2024/03/20 09:12:45;;;;;;;5.53;4.40;;;;;;;14.36;100.00;100719.09;5050200;28;20041;-69
2024/03/20 09:15:10;;;;;;;7.22;5.10;;;;;;;14.51;100.00;100721.19;5050011;28;20134;-70
2024/03/20 09:17:36;;;;;;;5.85;4.88;;;;;;;14.53;100.00;100849.09;5050026;28;20025;-70
2024/03/20 09:20:19;;;;;;;6.88;4.70;;;;;;;14.29;100.00;100743.22;5065401;28;20048;-71
2024/03/20 09:22:46;;;;;;;6.40;4.97;;;;;;;15.15;100.00;100786.47;5049894;28;20037;-69
2024/03/20 09:25:13;;;;;;;6.05;4.53;;;;;;;15.02;100.00;100751.91;5048841;28;20057;-68
2024/03/20 09:27:40;;;;;;;5.93;4.70;;;;;;;13.96;100.00;100901.88;5049801;28;20044;-74
2024/03/20 09:30:06;;;;;;;5.25;4.60;;;;;;;13.53;100.00;100890.19;5049614;28;20159;-69
2024/03/20 09:32:32;;;;;;;5.22;4.63;;;;;;;12.67;100.00;101092.97;5049963;28;20555;-69
2024/03/20 09:35:00;;;;;;;5.00;4.40;;;;;;;13.17;100.00;100868.16;5048591;28;20029;-69
2024/03/20 09:37:26;;;;;;;8.75;5.50;;;;;;;15.18;100.00;100781.25;5049671;28;20513;-69
2024/03/20 09:39:53;;;;;;;6.30;5.18;;;;;;;14.38;100.00;100770.25;5064757;28;20043;-69
2024/03/20 09:42:21;;;;;;;7.00;4.95;;;;;;;14.47;100.00;100731.56;5049969;28;20029;-70
2024/03/20 09:44:47;;;;;;;8.50;5.80;;;;;;;15.50;100.00;100793.84;5048322;28;20139;-70
2024/03/20 09:47:13;;;;;;;9.23;5.50;;;;;;;15.42;100.00;100797.53;5048330;28;20033;-69
2024/03/20 09:49:39;;;;;;;6.05;4.95;;;;;;;14.40;100.00;100779.53;5049751;28;20029;-70
2024/03/20 09:52:07;;;;;;;8.05;4.80;;;;;;;13.81;100.00;100967.00;5048325;28;20527;-69
2024/03/20 09:54:32;;;;;;;5.65;4.43;;;;;;;13.75;100.00;100773.78;5047806;28;20553;-70
2024/03/20 09:56:58;;;;;;;5.65;4.60;;;;;;;14.32;100.00;100742.28;5049190;28;20098;-69
2024/03/20 09:59:23;;;;;;;5.88;4.95;;;;;;;15.16;100.00;100764.25;5049332;28;20131;-69
2024/03/20 10:01:49;;;;;;;5.13;4.00;;;;;;;15.02;100.00;100787.78;5049387;28;20037;-70
2024/03/20 10:04:14;;;;;;;5.20;4.20;;;;;;;14.40;100.00;100927.09;5048416;28;20043;-69
2024/03/20 10:06:40;;;;;;;7.32;4.57;;;;;;;13.57;100.00;100935.25;5047070;28;20091;-70
2024/03/20 10:09:09;;;;;;;6.38;4.60;;;;;;;14.68;100.00;100848.59;5048746;28;20427;-73
2024/03/20 10:11:35;;;;;;;8.15;4.53;;;;;;;15.27;100.00;100769.84;5049276;28;20033;-70
2024/03/20 10:14:00;;;;;;;6.28;4.88;;;;;;;15.96;100.00;100728.91;5064489;28;20037;-69
2024/03/20 10:16:30;;;;;;;7.07;4.72;;;;;;;14.50;100.00;100741.69;5051446;28;20560;-69
2024/03/20 10:18:55;;;;;;;4.30;3.90;;;;;;;14.18;100.00;100862.03;5053326;28;20036;-70
2024/03/20 10:21:21;;;;;;;5.43;3.72;;;;;;;14.37;100.00;100864.06;5050256;28;20033;-70
2024/03/20 10:23:46;;;;;;;5.65;3.90;;;;;;;15.69;100.00;100767.53;5048266;28;20577;-68
2024/03/20 10:26:14;;;;;;;6.82;4.60;;;;;;;15.16;100.00;100688.25;5063869;28;20419;-68
2024/03/20 10:28:40;;;;;;;9.60;4.80;;;;;;;15.26;100.00;100683.63;5047636;28;20037;-69
2024/03/20 10:31:10;;;;;;;5.57;4.45;;;;;;;14.86;100.00;100827.56;4693155;28;9999822;-73
2024/03/20 10:33:37;;;;;;;5.72;4.45;;;;;;;15.69;100.00;100749.59;5060655;28;20037;-71
2024/03/20 10:36:04;;;;;;;5.28;4.50;;;;;;;16.11;100.00;100529.91;5046813;28;20032;-71
2024/03/20 10:38:34;;;;;;;7.05;4.55;;;;;;;16.37;100.00;100579.25;5061996;28;20793;-71
2024/03/20 10:41:02;;;;;;;5.18;3.75;;;;;;;15.37;100.00;100809.66;5061829;28;20546;-72
2024/03/20 10:43:28;;;;;;;4.88;4.15;;;;;;;14.59;100.00;100783.22;5044268;28;20067;-74
2024/03/20 10:45:54;;;;;;;6.55;4.70;;;;;;;13.52;100.00;100808.50;5045286;28;20445;-72
2024/03/20 10:48:21;;;;;;;6.05;4.45;;;;;;;13.84;100.00;100966.94;5046250;28;20029;-74
2024/03/20 10:50:49;;;;;;;5.05;4.55;;;;;;;15.08;100.00;100815.75;5046585;28;20161;-71
2024/03/20 10:53:16;;;;;;;5.43;4.50;;;;;;;15.83;100.00;100763.56;5045936;28;20484;-70
2024/03/20 10:55:48;;;;;;;7.45;4.18;;;;;;;14.74;100.00;100862.06;5047982;28;20076;-71
2024/03/20 10:58:18;;;;;;;9.32;5.13;;;;;;;13.65;100.00;100900.13;5047815;28;20125;-69
2024/03/20 11:00:47;;;;;;;5.68;4.28;;;;;;;13.03;100.00;101049.72;5048419;28;20396;-71
2024/03/20 11:03:51;;;;;;;5.80;4.97;;;;;;;13.55;100.00;101028.97;5048224;28;20028;-70
2024/03/20 11:06:33;;;;;;;7.32;4.63;;;;;;;14.05;100.00;100973.22;5042360;28;20441;-69
2024/03/20 11:09:11;;;;;;;8.80;4.70;;;;;;;13.88;100.00;100982.16;5047204;28;20029;-71
2024/03/20 11:11:38;;;;;;;5.25;4.43;;;;;;;13.70;100.00;100959.63;5048257;28;20029;-71
2024/03/20 11:14:05;;;;;;;6.32;5.28;;;;;;;14.28;100.00;100756.06;5046999;28;20461;-72
2024/03/20 11:16:31;;;;;;;6.20;4.85;;;;;;;13.89;100.00;100914.81;5046518;28;20037;-71